Rio, WV

11:30 PM EST on March 02, 2015 (GMT -0500)
KWVLOSTC4 | Change Station
CLOSE
Current Station
Personal Weather Station
Location: Lost City, WV
Elevation: 1762 ft
Nearby Weather Stations
Active Advisory: Winter Weather Advisory

Elev 1762 ft 38.91 °N, 78.79 °W | Updated 10 seconds ago

Clear
Clear
22.8 °F
Feels Like 23 °F
N
0.0
Wind Variable Wind from NW
Gusts 0.0 mph

Today
High -- | Low -- °F
--% Chance of Precip.
Yesterday
High -- | Low -- °F
Precip. -- in
6:46 AM 6:08 PM
Waxing Gibbous, 94% visible
Pressure 30.40 in
Visibility 10.0 miles
Clouds Clear
Windchill 23 °F
Dew Point 17 °F
Humidity 78%
Rainfall 0.00 in
Snow Depth Not available.
UV 0 out of 12
Pollen 1.30 out of 12
Air Quality Not available.
Flu Activity Not available.
METAR KW99 030415Z AUTO 01003KT 10SM CLR M03/M07 A3040 RMK AO2 T10341074

More Conditions Fewer Conditions

Pressure 30.40 in
Visibility 10.0 miles
Clouds Clear
Windchill 23 °F
Dew Point 17 °F
Humidity 78%
Rainfall 0.00 in
Snow Depth Not available.
UV 0 out of 12
Pollen 1.30 out of 12
Air Quality Not available.
Flu Activity Not available.
METAR KW99 030415Z AUTO 01003KT 10SM CLR M03/M07 A3040 RMK AO2 T10341074

More Conditions Fewer Conditions

10-Day Weather Forecast

Almanac

Astronomy

Mar. 02, 2015 Rise Set
Actual Time
Civil Twilight
Nautical Twilight
Astronomical Twilight
Moon
Length of Visible Light
Length of Day
Tomorrow will be .
, % of the Moon is Illuminated

Today's Extremes

State Highs State Lows

Community

WunderPhotos

Upload Photos

1,802,064 photos uploaded!

WunderBlogs® & News

Nearby

Air Quality

  Air Quality AQ Index Pollutant
Not available.

Snow Depth

Station Depth Elevation

Earthquake Activity

City Distance Mag. Time & Date
Minimum magnitude displayed is 2.5.

Coastal Water Temperatures

Place Temperature

Nearby Weather Stations

Winter Weather Advisory
Statement as of 9:08 PM EST on March 02, 2015

... Winter Weather Advisory remains in effect from 7 am to 7 PM
EST Tuesday...

* locations... eastern West Virginia... western Maryland and
western Virginia

* hazard types... a wintry mix of snow... sleet and freezing rain.

* Accumulations... snow and sleet accumulation of up to 1
inch... along with a trace of ice.

* Timing... Tuesday morning through early Tuesday evening.

* Impacts... roads will be snow and ice covered. Traveling will be
dangerous.

* Winds... south 5 to 15 mph with gusts up to 25 mph.

* Temperatures... in the upper 20s.

Precautionary/preparedness actions...

A Winter Weather Advisory means that periods of snow... sleet... or
freezing rain will cause travel difficulties. Be prepared for
slippery roads and limited visibilities... and use caution while
driving.